Kansas City, Missouri
Traffic Map
Current Weather Conditions
Kansas City, Missouri
Clear
Clear
91°
Feels Like: 97°
Wind Chill: 91° Ceiling: Unl
Heat Index: 97° Visibility: 10mi
Dew Point: 70° Wind: 17mph
Humidity: 50% Direction: 180° (S)
Pressure: 29.92in Gusts: 24mph
Raw Report DataKMKC 222054Z 18015G21KT 10SM CLR 33/21 A2992 RMK AO2 SLP120 T03280211 58014
Traffic Incident Summary
Active as of:
Severity:
Category:
InformationThere was an issue retrieving the traffic information for this location. Please try a different location or try again shortly.
Advertisements